Time;durP1;ratioP1;P1;durP2;ratioP2;P2;SDS_P1;SDS_P2;PMS_P1;PMS_P2;Temp;Humidity;BMP_temperature;BMP_pressure;BME280_temperature;BME280_humidity;BME280_pressure;Samples;Min_cycle;Max_cycle;Signal;HPM_P1;HPM_P2
2023/11/15 00:01:50;;;;;;;;;6.33;3.33;;;;;;;;5080987;28;45316;-74
2023/11/15 00:04:17;;;;;;;;;4.67;3.00;;;;;;;;5080539;28;45246;-74
2023/11/15 00:06:42;;;;;;;;;3.33;2.33;;;;;;;;5080402;28;45360;-73
2023/11/15 00:09:07;;;;;;;;;3.00;3.00;;;;;;;;5062138;28;45478;-73
2023/11/15 00:11:33;;;;;;;;;4.67;2.67;;;;;;;;5080879;28;45381;-74
2023/11/15 00:13:59;;;;;;;;;3.67;2.67;;;;;;;;5058815;28;47214;-74
2023/11/15 00:16:24;;;;;;;;;2.67;2.67;;;;;;;;5058757;28;46970;-74
2023/11/15 00:18:49;;;;;;;;;3.00;3.00;;;;;;;;5059963;28;45284;-73
2023/11/15 00:21:15;;;;;;;;;3.00;2.33;;;;;;;;5059368;28;45338;-73
2023/11/15 00:23:40;;;;;;;;;6.33;4.33;;;;;;;;5060127;28;45313;-73
2023/11/15 00:26:06;;;;;;;;;7.33;4.00;;;;;;;;5060163;28;46076;-74
2023/11/15 00:28:32;;;;;;;;;4.67;2.33;;;;;;;;5058078;28;45287;-73
2023/11/15 00:30:58;;;;;;;;;3.67;3.67;;;;;;;;5055399;28;45312;-73
2023/11/15 00:33:23;;;;;;;;;3.00;3.00;;;;;;;;5039593;28;45217;-73
2023/11/15 00:35:48;;;;;;;;;2.75;2.00;;;;;;;;5038179;28;48386;-73
2023/11/15 00:38:14;;;;;;;;;3.67;3.67;;;;;;;;5039980;28;45265;-73
2023/11/15 00:40:41;;;;;;;;;6.00;4.00;;;;;;;;5039994;28;45336;-73
2023/11/15 00:43:06;;;;;;;;;2.67;2.67;;;;;;;;5039605;28;45356;-73
2023/11/15 00:45:31;;;;;;;;;4.00;3.50;;;;;;;;5038151;28;48590;-72
2023/11/15 00:47:57;;;;;;;;;1.50;1.50;;;;;;;;5038716;28;45352;-74
2023/11/15 00:50:22;;;;;;;;;4.00;3.00;;;;;;;;5054474;28;45371;-73
2023/11/15 00:52:47;;;;;;;;;5.00;2.25;;;;;;;;5039797;28;45528;-73
2023/11/15 00:55:13;;;;;;;;;4.33;3.67;;;;;;;;5054793;28;47083;-73
2023/11/15 00:57:38;;;;;;;;;3.00;2.00;;;;;;;;5037038;28;45459;-74
2023/11/15 01:00:13;;;;;;;;;2.67;2.00;;;;;;;;5039401;28;45308;-74
2023/11/15 01:02:46;;;;;;;;;5.67;4.00;;;;;;;;5039532;28;45369;-73
2023/11/15 01:05:11;;;;;;;;;5.33;3.00;;;;;;;;5039164;28;45600;-73
2023/11/15 01:07:36;;;;;;;;;2.67;2.67;;;;;;;;5039321;28;45467;-73
2023/11/15 01:10:01;;;;;;;;;3.00;1.00;;;;;;;;5039230;28;45384;-73
2023/11/15 01:12:26;;;;;;;;;3.00;2.67;;;;;;;;5039379;28;45324;-73
2023/11/15 01:14:52;;;;;;;;;3.00;3.00;;;;;;;;5062096;28;46277;-73
2023/11/15 01:17:17;;;;;;;;;4.00;3.33;;;;;;;;5079641;28;45370;-73
2023/11/15 01:19:43;;;;;;;;;2.67;2.67;;;;;;;;5079576;28;45346;-74
2023/11/15 01:22:08;;;;;;;;;3.67;3.67;;;;;;;;5079440;28;45325;-73
2023/11/15 01:24:33;;;;;;;;;4.67;3.00;;;;;;;;5079128;28;46245;-73
2023/11/15 01:26:59;;;;;;;;;3.00;2.67;;;;;;;;5060226;28;45483;-73
2023/11/15 01:29:24;;;;;;;;;3.67;3.67;;;;;;;;5079607;28;45262;-74
2023/11/15 01:31:50;;;;;;;;;3.75;3.00;;;;;;;;5079549;28;45292;-73
2023/11/15 01:34:17;;;;;;;;;2.33;1.00;;;;;;;;5081220;28;46222;-74
2023/11/15 01:36:44;;;;;;;;;3.33;2.00;;;;;;;;5081656;28;45217;-73
2023/11/15 01:39:15;;;;;;;;;3.00;3.00;;;;;;;;5083200;28;45375;-73
2023/11/15 01:41:47;;;;;;;;;3.67;2.67;;;;;;;;5082870;28;45396;-73
2023/11/15 01:44:12;;;;;;;;;3.00;3.00;;;;;;;;5082750;28;46095;-73
2023/11/15 01:46:37;;;;;;;;;4.33;3.00;;;;;;;;5082839;28;45335;-73
2023/11/15 01:49:03;;;;;;;;;7.00;3.67;;;;;;;;5082784;28;45349;-73
2023/11/15 01:51:28;;;;;;;;;3.67;3.67;;;;;;;;5081282;28;46260;-73
2023/11/15 01:53:53;;;;;;;;;1.00;1.00;;;;;;;;5064279;28;48294;-73
2023/11/15 01:56:19;;;;;;;;;3.00;3.00;;;;;;;;5081836;28;45339;-73
2023/11/15 01:58:44;;;;;;;;;3.67;3.00;;;;;;;;5082835;28;45343;-73
2023/11/15 02:01:10;;;;;;;;;3.67;3.00;;;;;;;;5082667;28;45329;-73
2023/11/15 02:03:36;;;;;;;;;5.33;5.33;;;;;;;;5082404;28;46146;-73
2023/11/15 02:06:02;;;;;;;;;2.33;2.33;;;;;;;;5082330;28;45290;-73
2023/11/15 02:08:27;;;;;;;;;4.00;2.00;;;;;;;;5081110;28;45367;-73
2023/11/15 02:10:52;;;;;;;;;4.00;3.33;;;;;;;;5082493;28;45423;-73
2023/11/15 02:13:25;;;;;;;;;2.67;2.00;;;;;;;;5082512;28;45515;-73
2023/11/15 02:15:52;;;;;;;;;9.00;5.33;;;;;;;;5081906;28;45362;-73
2023/11/15 02:18:17;;;;;;;;;4.00;3.00;;;;;;;;5082306;28;45227;-74
2023/11/15 02:20:42;;;;;;;;;5.00;4.67;;;;;;;;5082237;28;45561;-73
2023/11/15 02:23:08;;;;;;;;;3.33;3.33;;;;;;;;5082319;28;45381;-73
2023/11/15 02:25:33;;;;;;;;;4.00;4.00;;;;;;;;5082238;28;45341;-73
2023/11/15 02:28:00;;;;;;;;;8.00;5.00;;;;;;;;5081137;28;45351;-73
2023/11/15 02:30:25;;;;;;;;;6.00;4.67;;;;;;;;5063924;28;45471;-73
2023/11/15 02:32:50;;;;;;;;;5.33;4.67;;;;;;;;5061663;28;45473;-73
2023/11/15 02:35:15;;;;;;;;;5.00;4.00;;;;;;;;5061479;28;45335;-73
2023/11/15 02:37:41;;;;;;;;;6.00;5.00;;;;;;;;5061894;28;45255;-73
2023/11/15 02:40:09;;;;;;;;;3.33;2.00;;;;;;;;5061842;28;45494;-74
2023/11/15 02:42:34;;;;;;;;;5.00;3.00;;;;;;;;5061764;28;46412;-74
2023/11/15 02:44:59;;;;;;;;;2.33;2.33;;;;;;;;5060781;28;45322;-73
2023/11/15 02:47:25;;;;;;;;;2.67;2.00;;;;;;;;5060393;28;45332;-74
2023/11/15 02:49:51;;;;;;;;;5.33;3.00;;;;;;;;5061501;28;45357;-73
2023/11/15 02:52:16;;;;;;;;;3.00;3.00;;;;;;;;5061481;28;45233;-74
2023/11/15 02:54:41;;;;;;;;;2.33;2.00;;;;;;;;5061688;28;45231;-74
2023/11/15 02:57:07;;;;;;;;;4.33;3.00;;;;;;;;5061566;28;45487;-73
2023/11/15 02:59:32;;;;;;;;;3.67;2.00;;;;;;;;5059969;28;46932;-73
2023/11/15 03:01:57;;;;;;;;;2.00;2.00;;;;;;;;5061531;28;45165;-73
2023/11/15 03:04:22;;;;;;;;;2.75;1.50;;;;;;;;5059959;28;45545;-73
2023/11/15 03:06:47;;;;;;;;;3.00;3.00;;;;;;;;5060129;28;45356;-73
2023/11/15 03:09:13;;;;;;;;;3.75;2.25;;;;;;;;5059964;28;46211;-73
2023/11/15 03:11:38;;;;;;;;;3.00;2.00;;;;;;;;5061181;28;45337;-73
2023/11/15 03:14:04;;;;;;;;;2.33;1.33;;;;;;;;5061060;28;45457;-74
2023/11/15 03:16:29;;;;;;;;;3.00;2.00;;;;;;;;5061473;28;45243;-73
2023/11/15 03:18:54;;;;;;;;;3.00;2.00;;;;;;;;5060934;28;45322;-73
2023/11/15 03:21:19;;;;;;;;;2.67;2.67;;;;;;;;5060880;28;45331;-73
2023/11/15 03:23:45;;;;;;;;;2.00;2.00;;;;;;;;5061236;28;45327;-73
2023/11/15 03:26:10;;;;;;;;;1.33;1.33;;;;;;;;5061097;28;45343;-73
2023/11/15 03:28:35;;;;;;;;;3.00;3.00;;;;;;;;5063446;28;45330;-73
2023/11/15 03:31:01;;;;;;;;;2.33;2.33;;;;;;;;5081084;28;46117;-73
2023/11/15 03:33:26;;;;;;;;;3.00;3.00;;;;;;;;5079592;28;45648;-73
2023/11/15 03:35:52;;;;;;;;;2.00;2.00;;;;;;;;5079940;28;45308;-74
2023/11/15 03:38:17;;;;;;;;;4.00;2.25;;;;;;;;5079565;28;45997;-74
2023/11/15 03:40:42;;;;;;;;;3.00;3.00;;;;;;;;5081102;28;46100;-74
2023/11/15 03:43:07;;;;;;;;;2.60;2.60;;;;;;;;5081221;28;45525;-73
2023/11/15 03:45:32;;;;;;;;;3.25;1.50;;;;;;;;5062967;28;45280;-74
2023/11/15 03:47:58;;;;;;;;;2.67;1.67;;;;;;;;5062460;28;46071;-73
2023/11/15 03:50:23;;;;;;;;;4.00;3.33;;;;;;;;5079218;28;47342;-73
2023/11/15 03:52:49;;;;;;;;;2.00;2.00;;;;;;;;5081129;28;45277;-73
2023/11/15 03:55:14;;;;;;;;;6.00;3.00;;;;;;;;5080938;28;45371;-73
2023/11/15 03:57:40;;;;;;;;;3.67;1.33;;;;;;;;5078458;28;47271;-73
2023/11/15 04:00:06;;;;;;;;;2.33;1.67;;;;;;;;5079370;28;47170;-74
2023/11/15 04:02:31;;;;;;;;;3.67;3.00;;;;;;;;5080739;28;45283;-74
2023/11/15 04:04:56;;;;;;;;;2.67;2.67;;;;;;;;5062441;28;45323;-74
2023/11/15 04:07:22;;;;;;;;;5.33;3.67;;;;;;;;5079039;28;46128;-73
2023/11/15 04:09:49;;;;;;;;;4.67;3.33;;;;;;;;5080450;28;45334;-74
2023/11/15 04:12:14;;;;;;;;;1.33;1.00;;;;;;;;5080823;28;45339;-73
2023/11/15 04:14:40;;;;;;;;;2.33;2.33;;;;;;;;5062201;28;45640;-73
2023/11/15 04:17:06;;;;;;;;;2.67;2.67;;;;;;;;5080597;28;45327;-73
2023/11/15 04:19:31;;;;;;;;;2.00;1.33;;;;;;;;5080179;28;45918;-73
2023/11/15 04:21:56;;;;;;;;;1.00;1.00;;;;;;;;5080508;28;45270;-74
2023/11/15 04:24:21;;;;;;;;;2.00;2.00;;;;;;;;5062354;28;45380;-75
2023/11/15 04:26:46;;;;;;;;;2.00;2.00;;;;;;;;5080353;28;45403;-73
2023/11/15 04:29:12;;;;;;;;;2.67;2.67;;;;;;;;5072515;28;45437;-74
2023/11/15 04:31:37;;;;;;;;;2.33;2.33;;;;;;;;5060090;28;45808;-73
2023/11/15 04:34:03;;;;;;;;;3.00;2.00;;;;;;;;5059990;28;45294;-75
2023/11/15 04:36:31;;;;;;;;;4.67;2.00;;;;;;;;5058454;28;46179;-73
2023/11/15 04:38:57;;;;;;;;;2.33;2.33;;;;;;;;5059846;28;45601;-74
2023/11/15 04:41:23;;;;;;;;;2.67;2.00;;;;;;;;5058556;28;45320;-73
2023/11/15 04:43:48;;;;;;;;;4.33;2.00;;;;;;;;5059801;28;45341;-73
2023/11/15 04:46:14;;;;;;;;;1.75;1.25;;;;;;;;5059744;28;45272;-74
2023/11/15 04:48:39;;;;;;;;;3.00;2.00;;;;;;;;5059551;28;45310;-73
2023/11/15 04:51:04;;;;;;;;;5.33;2.00;;;;;;;;5059727;28;45303;-74
2023/11/15 04:53:30;;;;;;;;;3.00;3.00;;;;;;;;5059908;28;45291;-74
2023/11/15 04:55:55;;;;;;;;;1.00;1.00;;;;;;;;5059800;28;45322;-73
2023/11/15 04:58:21;;;;;;;;;1.00;1.00;;;;;;;;5059565;28;45323;-73
2023/11/15 05:00:46;;;;;;;;;2.00;1.33;;;;;;;;5058059;28;45918;-73
2023/11/15 05:03:11;;;;;;;;;2.00;2.00;;;;;;;;5059358;28;45327;-73
2023/11/15 05:05:36;;;;;;;;;3.00;1.00;;;;;;;;5059466;28;45604;-73
2023/11/15 05:08:02;;;;;;;;;1.00;1.00;;;;;;;;5058964;28;45546;-73
2023/11/15 05:10:27;;;;;;;;;2.33;2.33;;;;;;;;5059166;28;45275;-73
2023/11/15 05:12:52;;;;;;;;;1.50;1.50;;;;;;;;5059696;28;45337;-74
2023/11/15 05:15:17;;;;;;;;;2.00;2.00;;;;;;;;5059223;28;45476;-74
2023/11/15 05:17:43;;;;;;;;;2.75;2.00;;;;;;;;5059292;28;46310;-74
2023/11/15 05:20:08;;;;;;;;;2.67;1.00;;;;;;;;5057827;28;45907;-74
2023/11/15 05:22:33;;;;;;;;;7.00;4.33;;;;;;;;5059324;28;45440;-73
2023/11/15 05:24:58;;;;;;;;;6.00;2.00;;;;;;;;5059287;28;45329;-74
2023/11/15 05:27:24;;;;;;;;;4.00;1.50;;;;;;;;5059168;28;46096;-74
2023/11/15 05:29:49;;;;;;;;;2.67;2.00;;;;;;;;5071093;28;45373;-75
2023/11/15 05:32:14;;;;;;;;;3.67;3.00;;;;;;;;5079002;28;45402;-74
2023/11/15 05:34:40;;;;;;;;;2.33;2.00;;;;;;;;5078133;28;46449;-74
2023/11/15 05:37:05;;;;;;;;;3.00;1.33;;;;;;;;5077937;28;47196;-73
2023/11/15 05:39:30;;;;;;;;;2.00;1.00;;;;;;;;5079547;28;45349;-74
2023/11/15 05:41:55;;;;;;;;;4.33;4.00;;;;;;;;5079788;28;45367;-74
2023/11/15 05:44:20;;;;;;;;;2.00;2.00;;;;;;;;5079623;28;45356;-74
2023/11/15 05:46:45;;;;;;;;;2.67;2.33;;;;;;;;5079301;28;45279;-74
2023/11/15 05:49:11;;;;;;;;;3.00;3.00;;;;;;;;5079328;28;45337;-74
2023/11/15 05:51:36;;;;;;;;;2.00;2.00;;;;;;;;5079394;28;45335;-74
2023/11/15 05:54:05;;;;;;;;;4.33;2.67;;;;;;;;5079160;28;45639;-74
2023/11/15 05:56:30;;;;;;;;;3.67;3.00;;;;;;;;5060821;28;47936;-74
2023/11/15 05:58:56;;;;;;;;;3.00;2.67;;;;;;;;5060929;28;45318;-74
2023/11/15 06:01:21;;;;;;;;;2.67;2.00;;;;;;;;5079344;28;45373;-74
2023/11/15 06:03:48;;;;;;;;;3.67;3.33;;;;;;;;5078976;28;45312;-74
2023/11/15 06:06:13;;;;;;;;;3.33;3.00;;;;;;;;5077910;28;45900;-74
2023/11/15 06:08:38;;;;;;;;;4.00;3.00;;;;;;;;5077352;28;45638;-74
2023/11/15 06:11:04;;;;;;;;;3.00;2.00;;;;;;;;5078149;28;45467;-73
2023/11/15 06:13:29;;;;;;;;;3.33;2.33;;;;;;;;5078942;28;45417;-74
2023/11/15 06:15:54;;;;;;;;;3.00;2.00;;;;;;;;5077807;28;48486;-74
2023/11/15 06:18:19;;;;;;;;;2.50;2.50;;;;;;;;5078967;27;45423;-74
2023/11/15 06:20:44;;;;;;;;;5.00;4.00;;;;;;;;5081403;28;45292;-75
2023/11/15 06:23:10;;;;;;;;;3.00;3.00;;;;;;;;5082321;28;45329;-74
2023/11/15 06:25:35;;;;;;;;;3.00;2.00;;;;;;;;5082296;28;45403;-74
2023/11/15 06:28:03;;;;;;;;;10.50;8.25;;;;;;;;5080910;28;45285;-73
2023/11/15 06:30:29;;;;;;;;;12.67;8.67;;;;;;;;5062422;28;45284;-73
2023/11/15 06:32:54;;;;;;;;;8.67;8.67;;;;;;;;5061732;28;45353;-73
2023/11/15 06:35:19;;;;;;;;;10.33;7.33;;;;;;;;5043540;28;47281;-73
2023/11/15 06:37:48;;;;;;;;;11.00;9.00;;;;;;;;5043717;28;45283;-74
2023/11/15 06:40:16;;;;;;;;;11.67;7.67;;;;;;;;5080219;28;45525;-73
2023/11/15 06:42:45;;;;;;;;;6.67;6.00;;;;;;;;5081743;28;45273;-74
2023/11/15 06:45:14;;;;;;;;;7.33;6.00;;;;;;;;5063503;28;47418;-74
2023/11/15 06:47:40;;;;;;;;;4.67;4.67;;;;;;;;5062491;28;45304;-74
2023/11/15 06:50:07;;;;;;;;;5.00;5.00;;;;;;;;5082095;28;45481;-74
2023/11/15 06:52:32;;;;;;;;;2.33;2.00;;;;;;;;5081771;28;45285;-74
2023/11/15 06:54:57;;;;;;;;;7.00;4.67;;;;;;;;5081658;28;46084;-75
2023/11/15 06:57:23;;;;;;;;;6.67;5.00;;;;;;;;5081623;28;45304;-75
2023/11/15 06:59:48;;;;;;;;;8.00;6.33;;;;;;;;5063121;28;45241;-75
2023/11/15 07:02:13;;;;;;;;;5.67;3.00;;;;;;;;5062745;28;45962;-75
2023/11/15 07:04:38;;;;;;;;;8.33;5.33;;;;;;;;5080761;28;46042;-75
2023/11/15 07:07:04;;;;;;;;;4.67;4.67;;;;;;;;5062752;28;45461;-75
2023/11/15 07:09:30;;;;;;;;;7.00;5.00;;;;;;;;5062737;28;45530;-74
2023/11/15 07:11:56;;;;;;;;;5.25;3.75;;;;;;;;5081060;28;45444;-75
2023/11/15 07:14:23;;;;;;;;;6.67;6.00;;;;;;;;5081160;28;46426;-74
2023/11/15 07:16:52;;;;;;;;;6.00;5.00;;;;;;;;5062560;28;45344;-74
2023/11/15 07:19:18;;;;;;;;;5.33;3.00;;;;;;;;5081405;28;45382;-75
2023/11/15 07:21:43;;;;;;;;;7.00;4.00;;;;;;;;5081369;28;45287;-75
2023/11/15 07:24:09;;;;;;;;;3.00;2.33;;;;;;;;5081319;28;46072;-74
2023/11/15 07:26:35;;;;;;;;;7.00;5.00;;;;;;;;5081215;28;45292;-74
2023/11/15 07:29:00;;;;;;;;;5.33;4.00;;;;;;;;5081161;28;45150;-74
2023/11/15 07:31:25;;;;;;;;;4.00;3.33;;;;;;;;5080816;28;45273;-75
2023/11/15 07:33:51;;;;;;;;;5.00;4.00;;;;;;;;5062385;28;47126;-74
2023/11/15 07:36:16;;;;;;;;;5.67;4.67;;;;;;;;5062214;28;46800;-74
2023/11/15 07:38:41;;;;;;;;;6.67;5.33;;;;;;;;5080863;28;45153;-75
2023/11/15 07:41:06;;;;;;;;;4.67;4.00;;;;;;;;5081133;28;45331;-74
2023/11/15 07:43:32;;;;;;;;;6.00;6.00;;;;;;;;5081204;28;46118;-75
2023/11/15 07:45:59;;;;;;;;;4.33;2.67;;;;;;;;5081145;28;45205;-74
2023/11/15 07:48:25;;;;;;;;;4.00;4.00;;;;;;;;5080983;28;45307;-74
2023/11/15 07:50:51;;;;;;;;;6.33;6.33;;;;;;;;5079677;28;45514;-73
2023/11/15 07:53:16;;;;;;;;;8.67;7.33;;;;;;;;5080547;28;45975;-73
2023/11/15 07:55:42;;;;;;;;;8.75;8.00;;;;;;;;5062850;28;45994;-73
2023/11/15 07:58:07;;;;;;;;;6.33;5.00;;;;;;;;5062861;28;45415;-75
2023/11/15 08:00:35;;;;;;;;;6.00;4.67;;;;;;;;5062282;28;46235;-73
2023/11/15 08:03:00;;;;;;;;;5.33;4.33;;;;;;;;5079902;28;46600;-75
2023/11/15 08:05:26;;;;;;;;;6.00;6.00;;;;;;;;5080519;28;45298;-74
2023/11/15 08:07:52;;;;;;;;;7.00;5.33;;;;;;;;5062147;28;46484;-73
2023/11/15 08:10:18;;;;;;;;;7.00;4.33;;;;;;;;5079904;28;45311;-75
2023/11/15 08:12:44;;;;;;;;;5.00;5.00;;;;;;;;5062873;28;46015;-74
2023/11/15 08:15:11;;;;;;;;;9.67;8.00;;;;;;;;5080343;28;45315;-74
2023/11/15 08:17:37;;;;;;;;;8.67;6.67;;;;;;;;5069434;28;45572;-75
2023/11/15 08:20:04;;;;;;;;;7.33;6.33;;;;;;;;5062213;28;45562;-75
2023/11/15 08:22:29;;;;;;;;;5.67;3.33;;;;;;;;5067344;28;46348;-75
2023/11/15 08:24:54;;;;;;;;;6.00;5.33;;;;;;;;5061584;28;45325;-74
2023/11/15 08:27:20;;;;;;;;;5.00;4.00;;;;;;;;5078580;28;45282;-74
2023/11/15 08:29:46;;;;;;;;;3.33;3.00;;;;;;;;5060439;28;46115;-74
2023/11/15 08:32:12;;;;;;;;;6.33;4.33;;;;;;;;5078865;28;45230;-74
2023/11/15 08:34:38;;;;;;;;;5.67;4.00;;;;;;;;5076494;28;45320;-74
2023/11/15 08:37:04;;;;;;;;;2.33;2.33;;;;;;;;5079131;28;45342;-75
2023/11/15 08:39:31;;;;;;;;;3.33;3.33;;;;;;;;5079046;28;46294;-74
2023/11/15 08:41:56;;;;;;;;;4.33;3.67;;;;;;;;5082615;27;45392;-74
2023/11/15 08:44:22;;;;;;;;;5.67;5.67;;;;;;;;5069521;28;45376;-75
2023/11/15 08:46:48;;;;;;;;;3.00;3.00;;;;;;;;5056108;28;45392;-76
2023/11/15 08:49:13;;;;;;;;;5.00;5.00;;;;;;;;5073070;28;45413;-76
2023/11/15 08:51:40;;;;;;;;;5.00;4.00;;;;;;;;5077903;28;45537;-76
2023/11/15 08:54:07;;;;;;;;;6.00;4.33;;;;;;;;5058823;28;45506;-76
2023/11/15 08:56:32;;;;;;;;;4.00;4.00;;;;;;;;5079420;28;45390;-76
2023/11/15 08:58:59;;;;;;;;;6.67;5.00;;;;;;;;5069227;28;45389;-76
2023/11/15 09:01:24;;;;;;;;;5.00;3.33;;;;;;;;5071499;28;45413;-76
2023/11/15 09:03:49;;;;;;;;;3.33;3.33;;;;;;;;5059324;28;45403;-76
2023/11/15 09:06:15;;;;;;;;;6.33;4.33;;;;;;;;5079216;28;45447;-76
2023/11/15 09:08:41;;;;;;;;;4.67;3.00;;;;;;;;5077613;28;45553;-76
2023/11/15 09:11:06;;;;;;;;;2.33;2.33;;;;;;;;5079997;27;45308;-77
2023/11/15 09:13:33;;;;;;;;;4.67;4.00;;;;;;;;5078294;28;45319;-76
2023/11/15 09:15:58;;;;;;;;;6.33;5.00;;;;;;;;5060577;28;45378;-76
2023/11/15 09:18:24;;;;;;;;;3.00;3.00;;;;;;;;5077489;28;45354;-77
2023/11/15 09:20:49;;;;;;;;;7.67;4.33;;;;;;;;5078936;28;46419;-76
2023/11/15 09:23:16;;;;;;;;;3.33;3.33;;;;;;;;5078876;28;45388;-76
2023/11/15 09:25:41;;;;;;;;;5.67;4.33;;;;;;;;5078579;28;45546;-76
2023/11/15 09:28:06;;;;;;;;;4.00;3.25;;;;;;;;5060453;28;45814;-76
2023/11/15 09:30:31;;;;;;;;;6.67;5.00;;;;;;;;5060961;28;46123;-77
2023/11/15 09:32:57;;;;;;;;;4.00;4.00;;;;;;;;5059430;28;46047;-75
2023/11/15 09:35:27;;;;;;;;;4.00;3.00;;;;;;;;5077619;28;45323;-76
2023/11/15 09:37:53;;;;;;;;;2.00;2.00;;;;;;;;5078637;28;45343;-75
2023/11/15 09:40:19;;;;;;;;;2.67;2.67;;;;;;;;5074829;28;46391;-75
2023/11/15 09:42:46;;;;;;;;;5.00;4.67;;;;;;;;5076378;28;45594;-76
2023/11/15 09:45:20;;;;;;;;;6.00;6.00;;;;;;;;5078236;28;45398;-75
2023/11/15 09:47:53;;;;;;;;;5.33;5.00;;;;;;;;5074101;28;45437;-76
2023/11/15 09:50:24;;;;;;;;;5.33;4.33;;;;;;;;5072329;28;46412;-76
2023/11/15 09:52:51;;;;;;;;;5.67;5.67;;;;;;;;5076704;28;45464;-76
2023/11/15 09:55:21;;;;;;;;;5.67;4.33;;;;;;;;5065530;28;45394;-76
2023/11/15 09:57:46;;;;;;;;;7.00;5.33;;;;;;;;5081747;28;45374;-76
2023/11/15 10:00:15;;;;;;;;;4.67;4.00;;;;;;;;5081772;28;45960;-77
2023/11/15 10:02:41;;;;;;;;;6.33;4.33;;;;;;;;5081658;28;45382;-76
2023/11/15 10:05:28;;;;;;;;;6.33;3.00;;;;;;;;5061741;28;45429;-76
2023/11/15 10:08:11;;;;;;;;;3.33;3.33;;;;;;;;5061803;28;45489;-76
2023/11/15 10:10:36;;;;;;;;;4.67;4.00;;;;;;;;5077929;28;48124;-77
2023/11/15 10:13:09;;;;;;;;;1.67;1.67;;;;;;;;5080274;28;45430;-77
2023/11/15 10:15:39;;;;;;;;;3.33;2.00;;;;;;;;5078947;28;45790;-78
2023/11/15 10:18:04;;;;;;;;;2.33;1.67;;;;;;;;5081542;28;45288;-76
2023/11/15 10:20:30;;;;;;;;;3.33;2.67;;;;;;;;5081452;28;45154;-77
2023/11/15 10:22:57;;;;;;;;;6.67;4.67;;;;;;;;5081863;28;45327;-76
2023/11/15 10:25:25;;;;;;;;;3.00;3.00;;;;;;;;5080562;28;45377;-77
2023/11/15 10:27:51;;;;;;;;;2.67;2.67;;;;;;;;5062914;28;46407;-76
2023/11/15 10:30:16;;;;;;;;;2.50;2.50;;;;;;;;5081645;28;45871;-77
2023/11/15 10:32:44;;;;;;;;;3.00;2.67;;;;;;;;5079153;28;45486;-78
2023/11/15 10:35:10;;;;;;;;;3.67;2.33;;;;;;;;5080890;28;45477;-76
2023/11/15 10:37:49;;;;;;;;;3.33;3.33;;;;;;;;5081154;28;45315;-76
2023/11/15 10:40:14;;;;;;;;;2.00;2.00;;;;;;;;5080486;28;45431;-77
2023/11/15 10:42:40;;;;;;;;;5.00;1.67;;;;;;;;5080931;28;45581;-77
2023/11/15 10:45:08;;;;;;;;;4.00;3.33;;;;;;;;5062932;28;45427;-77
2023/11/15 10:47:35;;;;;;;;;1.00;1.00;;;;;;;;5062239;28;47048;-76
2023/11/15 10:50:05;;;;;;;;;8.00;7.00;;;;;;;;5062889;28;46088;-76
2023/11/15 10:52:31;;;;;;;;;5.33;5.00;;;;;;;;5080463;28;45525;-75
2023/11/15 10:54:57;;;;;;;;;4.67;2.67;;;;;;;;5080873;28;45356;-75
2023/11/15 10:57:22;;;;;;;;;4.33;4.00;;;;;;;;5062306;28;46249;-76
2023/11/15 10:59:49;;;;;;;;;1.00;0.75;;;;;;;;5081202;28;45345;-75
2023/11/15 11:02:17;;;;;;;;;5.00;2.33;;;;;;;;5081214;28;45276;-76
2023/11/15 11:04:43;;;;;;;;;3.00;2.33;;;;;;;;5077621;28;45470;-77
2023/11/15 11:07:16;;;;;;;;;6.67;3.67;;;;;;;;5078629;28;45480;-76
2023/11/15 11:09:52;;;;;;;;;4.00;3.00;;;;;;;;5061696;28;47591;-77
2023/11/15 11:12:18;;;;;;;;;2.00;1.00;;;;;;;;5080873;28;45264;-76
2023/11/15 11:14:46;;;;;;;;;2.67;2.67;;;;;;;;5063276;28;45269;-78
2023/11/15 11:17:33;;;;;;;;;3.00;2.00;;;;;;;;5081461;28;45344;-76
2023/11/15 11:20:04;;;;;;;;;2.33;1.67;;;;;;;;5062910;28;47297;-76
2023/11/15 11:22:30;;;;;;;;;2.00;2.00;;;;;;;;5062874;28;45448;-76
2023/11/15 11:25:07;;;;;;;;;4.00;2.00;;;;;;;;5081638;28;45382;-76
2023/11/15 11:27:42;;;;;;;;;3.33;2.67;;;;;;;;5062573;28;47047;-76
2023/11/15 11:30:11;;;;;;;;;2.50;2.50;;;;;;;;5047345;28;46077;-76
2023/11/15 11:32:38;;;;;;;;;4.00;4.00;;;;;;;;5059409;28;45276;-75
2023/11/15 11:35:04;;;;;;;;;1.75;1.00;;;;;;;;5060925;28;45351;-76
2023/11/15 11:37:55;;;;;;;;;2.00;2.00;;;;;;;;5042364;28;45983;-78
2023/11/15 11:40:23;;;;;;;;;2.50;2.25;;;;;;;;5072265;28;46519;-78
2023/11/15 11:42:52;;;;;;;;;2.00;2.00;;;;;;;;5070702;28;45466;-78
2023/11/15 11:45:17;;;;;;;;;2.75;1.00;;;;;;;;5061593;28;45396;-77
2023/11/15 11:47:46;;;;;;;;;2.00;2.00;;;;;;;;5062416;28;45483;-77
2023/11/15 11:50:22;;;;;;;;;5.00;4.00;;;;;;;;5080604;28;45300;-78
2023/11/15 11:52:51;;;;;;;;;5.50;2.00;;;;;;;;5062691;28;45355;-78
2023/11/15 11:55:17;;;;;;;;;4.25;1.00;;;;;;;;5081057;28;45304;-78
2023/11/15 11:57:42;;;;;;;;;3.25;2.25;;;;;;;;5080968;28;45272;-78
2023/11/15 12:00:12;;;;;;;;;1.75;1.00;;;;;;;;5070380;28;45528;-78
2023/11/15 12:02:39;;;;;;;;;1.00;1.00;;;;;;;;5071242;28;45390;-78
2023/11/15 12:05:05;;;;;;;;;1.00;1.00;;;;;;;;5080522;28;45385;-78
2023/11/15 12:07:30;;;;;;;;;3.25;3.25;;;;;;;;5080270;28;45453;-78
2023/11/15 12:10:02;;;;;;;;;3.00;2.75;;;;;;;;5055205;28;48033;-78
2023/11/15 12:12:28;;;;;;;;;1.00;1.00;;;;;;;;5052130;28;45841;-77
2023/11/15 12:14:59;;;;;;;;;2.00;2.00;;;;;;;;5073355;28;45422;-78
2023/11/15 12:17:24;;;;;;;;;3.25;2.50;;;;;;;;5067368;28;47196;-78
2023/11/15 12:19:49;;;;;;;;;2.00;1.00;;;;;;;;5075249;28;45509;-78
2023/11/15 12:22:19;;;;;;;;;2.00;2.00;;;;;;;;5075936;28;45421;-80
2023/11/15 12:24:45;;;;;;;;;2.25;1.50;;;;;;;;5078138;28;45422;-78
2023/11/15 12:27:13;;;;;;;;;1.00;1.00;;;;;;;;5061143;28;46877;-78
2023/11/15 12:29:40;;;;;;;;;2.00;1.75;;;;;;;;5056038;28;47369;-78
2023/11/15 12:32:05;;;;;;;;;0.75;0.25;;;;;;;;5076103;28;45715;-79
2023/11/15 12:34:31;;;;;;;;;3.00;1.00;;;;;;;;5078392;28;45506;-79
2023/11/15 12:36:57;;;;;;;;;2.00;1.25;;;;;;;;5078723;28;45394;-78
2023/11/15 12:39:22;;;;;;;;;1.00;1.00;;;;;;;;5075896;28;47993;-79
2023/11/15 12:41:48;;;;;;;;;0.00;0.00;;;;;;;;5060589;28;45434;-77
2023/11/15 12:44:14;;;;;;;;;0.50;0.50;;;;;;;;5078956;28;45806;-77
2023/11/15 12:46:40;;;;;;;;;1.25;0.50;;;;;;;;5078940;28;45426;-79
2023/11/15 12:49:12;;;;;;;;;3.00;1.25;;;;;;;;5079187;28;46228;-77
2023/11/15 12:51:47;;;;;;;;;1.00;1.00;;;;;;;;5069543;28;45583;-76
2023/11/15 12:54:13;;;;;;;;;1.75;1.75;;;;;;;;5076316;28;45346;-78
2023/11/15 12:56:38;;;;;;;;;4.00;2.67;;;;;;;;5060152;28;46652;-79
2023/11/15 12:59:03;;;;;;;;;2.75;1.00;;;;;;;;5060797;28;45384;-77
2023/11/15 13:01:28;;;;;;;;;3.50;2.25;;;;;;;;5073671;28;45630;-79
2023/11/15 13:03:55;;;;;;;;;3.00;1.75;;;;;;;;5055289;28;45389;-79
2023/11/15 13:06:24;;;;;;;;;3.00;2.00;;;;;;;;5077905;28;45941;-78
2023/11/15 13:08:50;;;;;;;;;4.00;3.00;;;;;;;;5078694;28;46142;-79
2023/11/15 13:11:16;;;;;;;;;3.25;1.25;;;;;;;;5079768;28;45223;-77
2023/11/15 13:13:43;;;;;;;;;1.33;1.33;;;;;;;;5079801;28;45329;-78
2023/11/15 13:16:09;;;;;;;;;2.67;0.67;;;;;;;;5079650;28;45428;-76
2023/11/15 13:18:37;;;;;;;;;2.33;1.00;;;;;;;;5077422;28;46975;-80
2023/11/15 13:21:07;;;;;;;;;1.00;1.00;;;;;;;;5072139;28;45815;-78
2023/11/15 13:23:38;;;;;;;;;2.00;0.67;;;;;;;;5078252;27;45417;-77
2023/11/15 13:26:04;;;;;;;;;0.00;0.00;;;;;;;;5079705;27;45452;-81
2023/11/15 13:28:35;;;;;;;;;2.00;1.00;;;;;;;;5079570;27;46389;-78
2023/11/15 13:31:01;;;;;;;;;0.00;0.00;;;;;;;;5083175;28;45525;-78
2023/11/15 13:33:26;;;;;;;;;3.33;1.00;;;;;;;;5083105;28;45347;-77
2023/11/15 13:35:52;;;;;;;;;2.75;0.75;;;;;;;;5082986;28;46112;-77
2023/11/15 13:38:17;;;;;;;;;0.75;0.75;;;;;;;;5083341;28;46084;-77
2023/11/15 13:40:44;;;;;;;;;2.00;1.00;;;;;;;;5082952;28;45350;-82
2023/11/15 13:43:09;;;;;;;;;2.25;1.25;;;;;;;;5081016;28;45287;-78
2023/11/15 13:45:35;;;;;;;;;26.50;26.50;;;;;;;;5082832;28;45232;-81
2023/11/15 13:48:00;;;;;;;;;0.50;0.00;;;;;;;;5082569;28;45339;-82
2023/11/15 13:50:25;;;;;;;;;1.00;1.00;;;;;;;;5083332;28;45260;-81
2023/11/15 13:52:50;;;;;;;;;3.00;1.20;;;;;;;;5082947;28;45514;-80
2023/11/15 13:55:15;;;;;;;;;0.00;0.00;;;;;;;;5064549;28;47160;-79
2023/11/15 13:57:40;;;;;;;;;2.00;0.00;;;;;;;;5082203;28;45938;-76
2023/11/15 14:00:07;;;;;;;;;1.50;1.50;;;;;;;;5082143;28;45382;-76
2023/11/15 14:02:33;;;;;;;;;4.00;3.00;;;;;;;;5082742;28;45356;-78
2023/11/15 14:04:58;;;;;;;;;0.25;0.25;;;;;;;;5082752;28;45463;-78
2023/11/15 14:07:23;;;;;;;;;2.50;1.00;;;;;;;;5082568;28;46364;-78
2023/11/15 14:09:49;;;;;;;;;0.00;0.00;;;;;;;;5064079;28;45397;-78
2023/11/15 14:12:14;;;;;;;;;0.25;0.00;;;;;;;;5082954;28;45312;-79
2023/11/15 14:14:39;;;;;;;;;0.00;0.00;;;;;;;;5082212;28;45433;-80
2023/11/15 14:17:07;;;;;;;;;0.00;0.00;;;;;;;;5082582;28;46624;-79
2023/11/15 14:19:33;;;;;;;;;2.00;1.00;;;;;;;;5082275;28;45373;-77
2023/11/15 14:21:58;;;;;;;;;1.00;1.00;;;;;;;;5082408;28;45414;-78
2023/11/15 14:24:23;;;;;;;;;0.00;0.00;;;;;;;;5082617;28;45205;-79
2023/11/15 14:26:48;;;;;;;;;1.00;1.00;;;;;;;;5063991;28;48209;-78
2023/11/15 14:29:14;;;;;;;;;0.75;0.75;;;;;;;;5082159;28;45315;-78
2023/11/15 14:31:39;;;;;;;;;2.75;1.00;;;;;;;;5082419;28;45268;-80
2023/11/15 14:34:05;;;;;;;;;1.50;0.50;;;;;;;;5081922;28;45568;-78
2023/11/15 14:36:30;;;;;;;;;3.00;1.25;;;;;;;;5082079;28;45192;-77
2023/11/15 14:38:55;;;;;;;;;1.00;1.00;;;;;;;;5082226;28;45334;-78